KEEN/EEN METAR and TAF weather

Enter ICAO airport designator
Station Type Date Time Source
KEEN METAR 2021/02/27 02:56 UTC NOAA

KEEN 270256Z AUTO 00000KT 10SM CLR M04/M06 A3045 RMK AO2 SLP321 60000 T10391061 53007 FZRANO $


Station Type Date Time Source
KEEN Decoded METAR 2021/02/27 02:56 UTC NOAA

Keene, Dillant-Hopkins Airport, NH, United States (KEEN) 42-54N 072-16W
Feb 26, 2021 - 09:56 PM EST / 2021.02.27 0256 UTC
Wind: Calm:0
Visibility: 10 mile(s):0
Sky conditions: clear
Temperature: 25.0 F (-3.9 C)
Dew Point: 21.0 F (-6.1 C)
Relative Humidity: 84%
Pressure (altimeter): 30.45 in. Hg (1031 hPa)
Pressure tendency: 0.02 inches (0.7 hPa) higher than three hours ago
ob: KEEN 270256Z AUTO 00000KT 10SM CLR M04/M06 A3045 RMK AO2 SLP321 60000 T10391061 53007 FZRANO
cycle: 3

Station Type Date Time Source
KEEN TAF UTC NOAA

Error!

Example: see airport list